Create Custom Reports and Graphics: Custom Report

Lodi Weather Stations Latest Observations

Map

15 Minute Data

Lodi West

10 Stations

15 Minute Data | America/Los_Angeles
as of 9/28/20 11:56 AM PDT
Station Date Time Temp (°F) Dew Pt (°F) RH (%) Wind Spd (mph) Wind Dir (°) Wind Gust (mph) Latest Rain (In) Daily Rain (In) Daily Min Temp (°F) Daily Max Temp (°F)
Guard Rd (Lodi WSW) 9/28/20 1145 86.1   3.1 48.0   6.5 27   11 3.2   1.0 NNW | 346 8.4   0.2 0.00 0.00 54.1   7.6 86.8   3.3
Utter - Wilson 9/28/20 1145 90.1   4.1 44.2   8.8 20   12 10.1   2.0 NNW | 344 16.2   1.5 0.00 0.00 66.6   0.4 90.8   4.0
Clarksburg 9/28/20 1145 92.9   5.5 39.7   10.5 16   12 7.1   1.6 N | 354 14.7   2.6 0.00 0.00 65.8   0.3 93.1   4.9
Clarksburg-3A2 9/28/20 1145 89.8   6.2 37.8   11.4 16   14 13.4   1.3 NNW | 346 19.4   2.0 0.00 0.00 67.8   0.4 90.5   5.8
Gorter - Wilson 9/28/20 1145 90.5   5.9 44.1   8.5 20   13 6.5   0.0 N | 355 11.8   0.1 0.00 0.00 61.5   4.5 91.2   5.8
Hood 9/28/20 1145 87.8   5.7 41.4   9.1 20   14 5.0   1.8 N | 3 9.4   3.3 0.00 0.00 63.5   2.6 88.1   5.8
Courtland-C3 9/28/20 1145 87.8   6.0 44.6   6.9 22   13 6.3   2.9 NNW | 346 12.5   4.2 0.00 0.00 64.7   3.0 88.9   5.9
Pacific Fruit 9/28/20 1145 90.5   6.3 45.2   7.3 21   13 6.4   2.5 NNE | 16 13.0   3.1 0.00 0.00 65.0   3.8 91.0   6.0
Ryer Island South 9/28/20 1100 88.3   6.3 38.5   10.0 17   14 6.0   2.2 N | 350 12.4   6.8 0.00 0.00 57.0   13.4 89.0   6.2
Claussen 9/28/20 1145 87.5   5.1 46.9   5.2 25   11 3.6   2.8 NNW | 331 6.4   5.4 0.00 0.00 60.3   3.1 89.1   5.4
Max     92.9 48.0 27 13.4 - 19.4 0.00 0.00 67.8 93.1
Avg     89.1 43.0 20 6.8 - 12.4 0.00 - - -
Min     86.1 37.8 16 3.2 - 6.4 0.00 0.00 54.1 86.8

Lodi Central

9 Stations

15 Minute Data | America/Los_Angeles
as of 9/28/20 11:56 AM PDT
Station Date Time Temp (°F) Dew Pt (°F) RH (%) Wind Dir (°) Wind Spd (mph) Wind Gust (mph) Latest Rain (In) Daily Rain (In) Daily Min Temp (°F) Daily Max Temp (°F)
Galt West 9/28/20 1145 88.6   5.5 43.8   8.0 21   13 N | 359 4.8   1.5 9.8   1.6 0.00 0.00 54.3   3.2 88.8   5.1
Valley Oak 9/28/20 1145 88.0   4.2 42.3   8.5 20   12 NNW | 341 3.2   0.3 7.9   0.9 0.00 0.00 53.0   0.4 88.7   4.4
Thornton 9/28/20 1145 85.8   3.6 40.5   9.7 20   13 N | 355 4.5   2.2 8.8   3.4 0.00 0.00 54.8   1.0 86.7   4.0
Kost Rd 9/28/20 1145 88.6   4.1 44.8   7.4 22   11 NNW | 328 3.5   1.1 8.3   1.8 0.00 0.00 53.8   1.0 89.7   4.3
DeVries Road-North 9/28/20 1145 87.2   4.3 44.4   9.4 23   14 NNW | 343 5.1   1.3 9.6   1.6 0.00 0.00 53.7   1.0 87.7   3.8
Lodi (LangeTwins) 9/28/20 1130 85.6   4.3 42.5   11.1 22   16 NNW | 329 5.1   1.7 9.5   1.4 0.00 0.00 55.0   0.2 86.1   4.2
Acampo 9/28/20 1145 86.1   4.7 36.7   14.3 17   17 NNW | 338 3.4   0.6 6.8   0.0 0.00 0.00 53.0   1.7 86.5   4.7
Acampo (Woodbridge) 9/28/20 1145 85.9   2.9 38.9   14.2 19   17 NW | 316 2.5   0.6 6.0   0.9 0.00 0.00 55.1   1.7 86.9   3.5
Lodi West 7/13/20 0815 70.3   2.5 55.4   7.0 59   17 NW | 319 1.6   0.8 4.4   2.9 0.00 0.00 60.0   1.6 71.2   2.3
Max     88.6 44.8 23 - 5.1 9.8 0.00 0.00 55.1 89.7
Avg     87.0 41.8 21 - 4.0 8.3 0.00 - - -
Min     85.6 36.7 17 - 2.5 6.0 0.00 0.00 53.0 86.1

Lodi South

18 Stations

15 Minute Data | America/Los_Angeles
as of 9/28/20 11:56 AM PDT
Station Date Time Temp (°F) Dew Pt (°F) RH (%) Wind Spd (mph) Wind Dir (°) Wind Gust (mph) Latest Rain (In) Daily Rain (In) Daily Min Temp (°F) Daily Max Temp (°F)
Borden Hills 9/28/20 1145 84.2   1.3 52.0   5.4 33   6 2.3   1.9 WSW | 258 4.5   3.6 0.00 0.00 56.1   1.0 85.1   1.4
Collegeville 9/28/20 1145 84.0   3.1 46.0   4.8 27   9 2.2   0.2 NW | 322 6.0   1.4 0.00 0.00 54.1   2.9 84.1   2.6
Galt-East 9/28/20 1145 83.1   0.4 45.4   7.8 27   9 1.9   0.5 NNW | 329 4.9   2.2 0.00 0.00 54.9   0.6 84.0   0.3
Escalon 9/28/20 1145 81.4   1.4 46.7   4.6 30   7 3.3   0.2 W | 276 5.8   1.5 0.00 0.00 56.0   6.6 82.0   0.1
Victor - N (Katusha) 9/28/20 1145 83.4   1.4 40.4   12.3 22   14 1.9   0.6 NNE | 13 5.4   0.7 0.00 0.00 53.0   3.2 84.4   1.8
Teresi-Alpine Rd (East Lodi) 9/28/20 1145 85.2   0.5 42.1   11.1 22   12 1.7   0.6 N | 357 4.7   1.5 0.00 0.00 54.7   3.0 86.2   0.2
Gilbeau Ranch 9/28/20 1145 84.0   0.5 42.0   10.4 23   11 1.3   1.0 NNW | 340 5.5   1.3 0.00 0.00 52.8   2.1 85.8   1.5
Linden 9/28/20 1145 81.0   2.2 50.0   5.6 34   11 1.5   0.8 WSW | 258 4.5   0.6 0.00 0.00 52.0   1.9 82.3   3.2
Live Oak 9/28/20 1145 83.4   1.6 45.8   9.2 27   13 1.0   0.6 NW | 307 4.2   0.5 0.00 0.00 52.4   3.0 83.8   0.8
Lockeford 9/28/20 1145 82.8   1.3 41.9   11.2 24   14 1.4   1.0 NE | 38 3.8   2.5 0.00 0.00 54.2   1.3 83.5   0.9
Lone Oak-L28 9/28/20 1145 82.4   2.6 53.7   3.4 37   8 2.3   1.4 S | 172 5.8   1.4 0.00 0.00 52.3   0.5 83.3   2.7
Colony 1 9/28/20 1145 87.6   2.2 40.2   13.4 19   15 3.8   1.6 NNW | 337 8.5   3.3 0.00 0.00 53.6   0.4 88.2   2.4
Colony 2 9/28/20 1145 88.2   1.7 42.4   10.7 20   12 3.6   1.5 NW | 314 7.6   0.7 0.00 0.00 54.6   1.5 89.1   2.2
Sheldon 9/28/20 1145 87.6   2.8 41.0   10.2 20   12 4.1   1.3 NNE | 12 9.1   2.0 0.00 0.00 51.6   1.5 88.3   2.9
Sierra Loma-L27 9/28/20 1145 85.1   0.0 51.1   6.3 31   8 1.9   0.8 SE | 133 4.5   2.1 0.00 0.00 55.2   0.4 86.2   0.2
Simmerhorn 9/28/20 1145 83.5   0.2 41.8   10.1 23   10 - - - - - 54.1   0.3 84.1   0.4
Sloughhouse 9/28/20 1145 86.5   2.7 37.1   14.4 17   15 0.9   1.4 WNW | 302 5.4   3.4 0.00 0.00 48.6   0.9 87.2   2.5
5 Wells 9/28/20 1145 83.7   0.3 42.8   10.1 24   11 2.0   0.3 NNE | 23 5.7   1.3 0.00 0.00 53.6   0.1 84.5   0.4
Max     88.2 53.7 37 4.1 - 9.1 0.00 0.00 56.1 89.1
Avg     84.3 44.6 25 2.2 - 5.6 0.00 - - -
Min     81.0 37.1 17 0.9 - 3.8 0.00 0.00 48.6 82.0

Air Quality (Current)

Map

15 Minute Data